createdAt,value
2023-06-26T00:01:37.212Z,65.27
2023-06-26T00:04:06.694Z,64.78
2023-06-26T00:06:37.296Z,65.67
2023-06-26T00:09:14.798Z,67.01
2023-06-26T00:11:46.641Z,67.15
2023-06-26T00:14:19.559Z,67.72
2023-06-26T00:16:53.602Z,67.82
2023-06-26T00:19:24.772Z,67.75
2023-06-26T00:21:58.476Z,67.64
2023-06-26T00:24:29.597Z,67.95
2023-06-26T00:27:05.650Z,67.55
2023-06-26T00:29:34.766Z,67.17
2023-06-26T00:32:07.794Z,67.21
2023-06-26T00:34:38.716Z,66.84
2023-06-26T00:37:10.376Z,67.74
2023-06-26T00:39:38.666Z,67.98
2023-06-26T00:42:10.180Z,68.19
2023-06-26T00:44:41.409Z,68.47
2023-06-26T00:47:19.261Z,68.54
2023-06-26T00:49:55.965Z,67.69
2023-06-26T00:52:35.677Z,67.13
2023-06-26T00:55:08.835Z,68.98
2023-06-26T00:57:42.340Z,69.33
2023-06-26T01:00:23.778Z,69.01
2023-06-26T01:02:56.915Z,68.34
2023-06-26T01:05:33.932Z,68.74
2023-06-26T01:08:04.562Z,67.29
2023-06-26T01:10:41.149Z,67.67
2023-06-26T01:13:16.940Z,68.10
2023-06-26T01:15:48.245Z,68.75
2023-06-26T01:18:23.730Z,68.69
2023-06-26T01:20:52.556Z,68.56
2023-06-26T01:23:26.857Z,67.84
2023-06-26T01:26:22.197Z,68.41
2023-06-26T01:28:53.378Z,69.42
2023-06-26T01:31:24.426Z,69.28
2023-06-26T01:34:04.796Z,70.58
2023-06-26T01:36:36.804Z,70.13
2023-06-26T01:39:17.103Z,70.25
2023-06-26T01:41:49.737Z,70.85
2023-06-26T01:44:27.854Z,70.57
2023-06-26T01:47:05.292Z,70.83
2023-06-26T01:49:44.461Z,70.92
2023-06-26T01:52:21.688Z,71.28
2023-06-26T01:55:08.421Z,72.21
2023-06-26T01:57:41.608Z,72.30
2023-06-26T02:00:19.582Z,71.62
2023-06-26T02:02:49.792Z,72.18
2023-06-26T02:05:20.508Z,72.16
2023-06-26T02:07:48.790Z,71.47
2023-06-26T02:10:24.536Z,71.45
2023-06-26T02:12:57.483Z,71.50
2023-06-26T02:15:27.017Z,71.65
2023-06-26T02:18:05.134Z,72.31
2023-06-26T02:20:35.053Z,72.56
2023-06-26T02:23:11.157Z,72.41
2023-06-26T02:25:40.214Z,72.23
2023-06-26T02:28:14.727Z,72.07
2023-06-26T02:30:46.550Z,72.15
2023-06-26T02:33:14.643Z,71.28
2023-06-26T02:35:45.729Z,71.68
2023-06-26T02:38:18.187Z,73.04
2023-06-26T02:40:58.470Z,72.83
2023-06-26T02:43:33.567Z,71.99
2023-06-26T02:46:12.082Z,71.92
2023-06-26T02:48:43.440Z,72.06
2023-06-26T02:51:15.906Z,71.11
2023-06-26T02:53:45.948Z,71.56
2023-06-26T02:56:16.067Z,72.04
2023-06-26T02:59:00.105Z,71.73
2023-06-26T03:01:31.726Z,72.00
2023-06-26T03:04:03.078Z,72.99
2023-06-26T03:06:35.714Z,72.66
2023-06-26T03:09:07.536Z,72.47
2023-06-26T03:11:36.987Z,72.53
2023-06-26T03:14:20.769Z,72.21
2023-06-26T03:16:54.061Z,71.13
2023-06-26T03:19:27.500Z,71.98
2023-06-26T03:22:32.288Z,72.00
2023-06-26T03:25:01.760Z,73.27
2023-06-26T03:27:32.798Z,73.43
2023-06-26T03:30:03.323Z,73.57
2023-06-26T03:32:31.744Z,73.97
2023-06-26T03:35:06.815Z,73.47
2023-06-26T03:37:35.706Z,73.73
2023-06-26T03:40:11.485Z,73.08
2023-06-26T03:42:47.814Z,72.95
2023-06-26T03:45:27.714Z,72.83
2023-06-26T03:48:02.551Z,72.73
2023-06-26T03:50:33.351Z,72.42
2023-06-26T03:53:02.806Z,72.38
2023-06-26T03:55:35.439Z,71.58
2023-06-26T03:58:05.912Z,72.49
2023-06-26T04:00:45.359Z,71.88
2023-06-26T04:03:14.820Z,71.74
2023-06-26T04:05:45.125Z,71.41
2023-06-26T04:08:15.885Z,71.88
2023-06-26T04:10:46.731Z,71.42
2023-06-26T04:13:18.873Z,72.35
2023-06-26T04:15:52.067Z,71.08
2023-06-26T04:18:28.932Z,71.51
2023-06-26T04:21:16.986Z,69.42
2023-06-26T04:23:52.450Z,69.90
2023-06-26T04:26:22.894Z,70.98
2023-06-26T04:28:52.638Z,70.85
2023-06-26T04:31:26.209Z,70.93
2023-06-26T04:33:57.096Z,70.15
2023-06-26T04:36:29.619Z,69.53
2023-06-26T04:39:00.240Z,70.85
2023-06-26T04:41:31.678Z,70.38
2023-06-26T04:44:08.248Z,69.36
2023-06-26T04:46:53.110Z,69.52
2023-06-26T04:49:30.649Z,69.43
2023-06-26T04:52:02.406Z,68.68
2023-06-26T04:54:31.779Z,67.80
2023-06-26T04:57:08.383Z,68.23
2023-06-26T04:59:41.943Z,68.13
2023-06-26T05:02:21.143Z,67.19
2023-06-26T05:04:50.895Z,67.38
2023-06-26T05:07:23.679Z,67.01
2023-06-26T05:09:55.326Z,66.71
2023-06-26T05:12:27.144Z,66.54
2023-06-26T05:14:58.148Z,66.51
2023-06-26T05:17:35.484Z,67.10
2023-06-26T05:20:08.151Z,66.70
2023-06-26T05:22:40.912Z,65.80
2023-06-26T05:25:19.005Z,65.29
2023-06-26T05:27:48.302Z,64.73
2023-06-26T05:30:27.713Z,63.79
2023-06-26T05:33:04.489Z,63.22
2023-06-26T05:35:33.239Z,62.84
2023-06-26T05:38:04.464Z,61.45
2023-06-26T05:40:35.888Z,60.59
2023-06-26T05:43:07.327Z,58.67
2023-06-26T05:45:38.567Z,57.37
2023-06-26T05:48:10.747Z,56.80
2023-06-26T05:50:43.038Z,56.60
2023-06-26T05:53:15.335Z,54.50
2023-06-26T05:55:51.520Z,54.54
2023-06-26T05:58:20.646Z,54.65
2023-06-26T06:00:48.700Z,54.32
2023-06-26T06:03:20.989Z,53.73
2023-06-26T06:05:57.765Z,53.38
2023-06-26T06:08:28.600Z,53.26
2023-06-26T06:11:00.495Z,52.71
2023-06-26T06:13:36.730Z,52.77
2023-06-26T06:16:14.127Z,53.24
2023-06-26T06:18:52.601Z,53.95
2023-06-26T06:21:22.701Z,54.32
2023-06-26T06:23:53.161Z,53.78
2023-06-26T06:26:29.677Z,54.25
2023-06-26T06:29:07.631Z,54.33
2023-06-26T06:31:36.795Z,53.88
2023-06-26T06:34:06.353Z,53.07
2023-06-26T06:36:37.396Z,53.76
2023-06-26T06:39:06.768Z,53.62
2023-06-26T06:41:37.951Z,53.51
2023-06-26T06:44:10.580Z,52.90
2023-06-26T06:46:39.220Z,52.89
2023-06-26T06:49:26.165Z,51.34
2023-06-26T06:51:57.370Z,52.11
2023-06-26T06:54:40.350Z,51.78
2023-06-26T06:57:17.611Z,51.94
2023-06-26T06:59:49.621Z,51.86
2023-06-26T07:02:29.812Z,51.42
2023-06-26T07:05:06.956Z,51.24
2023-06-26T07:07:36.263Z,51.38
2023-06-26T07:10:08.857Z,51.42
2023-06-26T07:12:39.506Z,51.17
2023-06-26T07:15:11.713Z,50.65
2023-06-26T07:17:43.616Z,51.95
2023-06-26T07:20:26.268Z,52.28
2023-06-26T07:23:00.003Z,51.38
2023-06-26T07:25:28.281Z,50.97
2023-06-26T07:27:59.999Z,50.53
2023-06-26T07:30:29.729Z,50.16
2023-06-26T07:33:00.845Z,49.45
2023-06-26T07:35:37.702Z,48.78
2023-06-26T07:38:08.158Z,48.55
2023-06-26T07:40:44.662Z,47.97
2023-06-26T07:43:15.336Z,48.68
2023-06-26T07:45:46.353Z,48.17
2023-06-26T07:48:20.133Z,47.29
2023-06-26T07:51:03.604Z,47.70
2023-06-26T07:53:40.018Z,47.62
2023-06-26T07:56:08.598Z,46.98
2023-06-26T07:58:39.742Z,46.57
2023-06-26T08:01:09.175Z,44.11
2023-06-26T08:03:38.229Z,44.65
2023-06-26T08:06:17.831Z,45.30
2023-06-26T08:08:51.830Z,45.35
2023-06-26T08:11:21.048Z,44.46
2023-06-26T08:14:02.976Z,45.22
2023-06-26T08:16:33.172Z,45.60
2023-06-26T08:19:05.094Z,45.01
2023-06-26T08:21:50.212Z,44.48
2023-06-26T08:24:27.355Z,44.70
2023-06-26T08:26:56.411Z,45.50
2023-06-26T08:29:27.310Z,45.57
2023-06-26T08:31:57.931Z,45.42
2023-06-26T08:34:29.339Z,45.88
2023-06-26T08:36:59.823Z,45.99
2023-06-26T08:39:29.514Z,46.82
2023-06-26T08:42:03.268Z,46.47
2023-06-26T08:44:40.811Z,46.29
2023-06-26T08:47:22.728Z,46.47
2023-06-26T08:50:03.867Z,46.29
2023-06-26T08:52:43.133Z,45.99
2023-06-26T08:55:14.388Z,45.50
2023-06-26T08:57:56.292Z,45.77
2023-06-26T09:00:27.699Z,46.38
2023-06-26T09:02:58.139Z,45.89
2023-06-26T09:05:29.183Z,45.98
2023-06-26T09:08:02.379Z,45.71
2023-06-26T09:10:35.781Z,45.52
2023-06-26T09:13:24.663Z,45.93
2023-06-26T09:15:57.444Z,45.58
2023-06-26T09:18:28.310Z,45.28
2023-06-26T09:21:02.374Z,45.61
2023-06-26T09:23:34.003Z,45.56
2023-06-26T09:26:14.327Z,45.29
2023-06-26T09:28:45.215Z,44.97
2023-06-26T09:31:31.501Z,44.95
2023-06-26T09:34:16.648Z,44.40
2023-06-26T09:36:47.979Z,44.36
2023-06-26T09:39:29.940Z,44.57
2023-06-26T09:42:00.936Z,44.14
2023-06-26T09:44:33.043Z,44.43
2023-06-26T09:47:04.198Z,44.45
2023-06-26T09:49:34.456Z,43.68
2023-06-26T09:52:05.843Z,43.63
2023-06-26T09:54:36.747Z,43.72
2023-06-26T09:57:16.165Z,43.72
2023-06-26T09:59:46.875Z,43.90
2023-06-26T10:02:18.801Z,44.01
2023-06-26T10:04:51.249Z,43.57
2023-06-26T10:07:21.897Z,42.41
2023-06-26T10:10:06.055Z,42.98
2023-06-26T10:12:39.365Z,42.46
2023-06-26T10:15:14.810Z,41.64
2023-06-26T10:17:47.358Z,41.59
2023-06-26T10:20:19.226Z,41.71
2023-06-26T10:22:50.234Z,42.33
2023-06-26T10:25:23.568Z,42.21
2023-06-26T10:27:56.862Z,42.09
2023-06-26T10:30:32.099Z,41.46
2023-06-26T10:33:12.302Z,40.14
2023-06-26T10:35:49.735Z,40.26
2023-06-26T10:38:19.446Z,40.32
2023-06-26T10:40:53.387Z,40.53
2023-06-26T10:43:23.776Z,39.69
2023-06-26T10:46:02.665Z,39.83
2023-06-26T10:48:36.848Z,40.08
2023-06-26T10:51:29.819Z,39.22
2023-06-26T10:53:59.517Z,39.31
2023-06-26T10:56:53.892Z,39.02
2023-06-26T10:59:25.432Z,39.52
2023-06-26T11:02:02.978Z,39.57
2023-06-26T11:04:45.607Z,39.16
2023-06-26T11:07:24.424Z,39.54
2023-06-26T11:10:00.911Z,39.23
2023-06-26T11:12:46.728Z,37.91
2023-06-26T11:15:18.880Z,37.52
2023-06-26T11:17:52.520Z,38.17
2023-06-26T11:20:34.690Z,38.30
2023-06-26T11:23:07.685Z,37.81
2023-06-26T11:25:37.458Z,37.95
2023-06-26T11:28:10.634Z,37.42
2023-06-26T11:30:44.653Z,38.60
2023-06-26T11:33:20.980Z,37.50
2023-06-26T11:35:54.842Z,37.85
2023-06-26T11:38:24.656Z,38.39
2023-06-26T11:40:54.729Z,37.70
2023-06-26T11:43:25.028Z,37.26
2023-06-26T11:46:01.751Z,36.61
2023-06-26T11:48:33.874Z,37.26
2023-06-26T11:51:06.709Z,36.81
2023-06-26T11:53:45.205Z,36.94
2023-06-26T11:56:19.781Z,36.83
2023-06-26T11:59:12.245Z,36.52
2023-06-26T12:01:47.947Z,36.31
2023-06-26T12:04:23.513Z,35.74
2023-06-26T12:06:58.505Z,36.54
2023-06-26T12:09:36.259Z,36.27
2023-06-26T12:12:13.054Z,36.00
2023-06-26T12:14:44.891Z,36.20
2023-06-26T12:17:26.961Z,35.16
2023-06-26T12:19:56.288Z,34.75
2023-06-26T12:22:29.071Z,34.08
2023-06-26T12:24:59.114Z,33.96
2023-06-26T12:27:37.344Z,34.17
2023-06-26T12:30:13.340Z,34.24
2023-06-26T12:32:42.298Z,35.06
2023-06-26T12:35:11.840Z,34.86
2023-06-26T12:37:48.311Z,33.67
2023-06-26T12:40:23.514Z,33.42
2023-06-26T12:42:54.778Z,33.15
2023-06-26T12:45:32.710Z,33.41
2023-06-26T12:48:13.452Z,32.93
2023-06-26T12:50:46.943Z,33.14
2023-06-26T12:53:20.548Z,33.77
2023-06-26T12:55:50.290Z,33.23
2023-06-26T12:58:22.794Z,33.39
2023-06-26T13:00:57.108Z,33.39
2023-06-26T13:03:28.264Z,32.51
2023-06-26T13:06:00.216Z,32.61
2023-06-26T13:08:38.618Z,32.42
2023-06-26T13:11:10.034Z,32.16
2023-06-26T13:13:54.208Z,33.11
2023-06-26T13:16:37.070Z,33.93
2023-06-26T13:19:05.638Z,34.89
2023-06-26T13:21:42.854Z,35.08
2023-06-26T13:24:14.280Z,34.70
2023-06-26T13:26:45.530Z,33.77
2023-06-26T13:29:18.618Z,33.75
2023-06-26T13:31:58.272Z,33.66
2023-06-26T13:34:31.572Z,33.54
2023-06-26T13:37:03.558Z,33.28
2023-06-26T13:39:33.288Z,32.59
2023-06-26T13:42:03.419Z,31.79
2023-06-26T13:44:38.844Z,31.60
2023-06-26T13:47:18.705Z,30.90
2023-06-26T13:49:48.005Z,31.87
2023-06-26T13:52:27.109Z,31.52
2023-06-26T13:54:55.589Z,30.80
2023-06-26T13:57:28.768Z,30.44
2023-06-26T13:59:57.619Z,30.40
2023-06-26T14:02:39.013Z,30.39
2023-06-26T14:05:27.203Z,30.09
2023-06-26T14:08:08.187Z,29.10
2023-06-26T14:10:37.933Z,30.73
2023-06-26T14:13:11.067Z,30.73
2023-06-26T14:15:45.124Z,32.86
2023-06-26T14:18:18.895Z,32.47
2023-06-26T14:20:50.277Z,31.56
2023-06-26T14:23:19.693Z,30.89
2023-06-26T14:25:49.942Z,29.65
2023-06-26T14:28:24.258Z,29.51
2023-06-26T14:31:01.511Z,29.33
2023-06-26T14:33:47.211Z,29.02
2023-06-26T14:36:16.008Z,28.86
2023-06-26T14:38:45.140Z,28.14
2023-06-26T14:41:18.845Z,27.92
2023-06-26T14:43:49.901Z,27.92
2023-06-26T14:46:20.291Z,27.94
2023-06-26T14:49:02.372Z,27.97
2023-06-26T14:51:30.368Z,27.96
2023-06-26T14:54:01.308Z,27.65
2023-06-26T14:56:30.883Z,27.59
2023-06-26T14:59:02.620Z,27.82
2023-06-26T15:01:32.415Z,27.90
2023-06-26T15:04:02.432Z,28.04
2023-06-26T15:06:34.211Z,27.62
2023-06-26T15:09:13.296Z,26.56
2023-06-26T15:11:44.989Z,27.72
2023-06-26T15:14:18.812Z,29.71
2023-06-26T15:16:48.193Z,29.16
2023-06-26T15:19:19.892Z,30.59
2023-06-26T15:21:52.516Z,30.40
2023-06-26T15:24:23.922Z,31.19
2023-06-26T15:26:54.123Z,30.78
2023-06-26T15:29:24.360Z,29.41
2023-06-26T15:32:01.634Z,29.11
2023-06-26T15:34:36.086Z,29.12
2023-06-26T15:37:07.520Z,28.08
2023-06-26T15:39:45.021Z,28.19
2023-06-26T15:42:13.774Z,28.73
2023-06-26T15:44:44.922Z,27.22
2023-06-26T15:47:16.224Z,28.41
2023-06-26T15:49:55.451Z,28.63
2023-06-26T15:52:26.083Z,28.02
2023-06-26T15:54:55.056Z,27.52
2023-06-26T15:57:29.095Z,28.92
2023-06-26T16:00:00.419Z,29.00
2023-06-26T16:02:29.764Z,29.07
2023-06-26T16:05:05.125Z,28.37
2023-06-26T16:07:55.199Z,28.78
2023-06-26T16:10:24.834Z,29.23
2023-06-26T16:12:54.640Z,29.18
2023-06-26T16:15:27.255Z,28.32
2023-06-26T16:17:56.601Z,30.94
2023-06-26T16:20:26.387Z,29.80
2023-06-26T16:22:56.602Z,29.03
2023-06-26T16:25:33.098Z,29.35
2023-06-26T16:28:02.918Z,29.67
2023-06-26T16:30:33.143Z,29.80
2023-06-26T16:33:05.400Z,29.06
2023-06-26T16:35:40.204Z,29.12
2023-06-26T16:38:13.942Z,29.79
2023-06-26T16:40:45.647Z,29.99
2023-06-26T16:43:22.430Z,29.53
2023-06-26T16:45:50.865Z,30.32
2023-06-26T16:48:25.032Z,29.53
2023-06-26T16:50:57.450Z,29.66
2023-06-26T16:53:27.038Z,30.72
2023-06-26T16:55:58.827Z,30.16
2023-06-26T16:58:29.989Z,29.83
2023-06-26T17:01:02.046Z,29.87
2023-06-26T17:03:36.134Z,30.54
2023-06-26T17:06:11.482Z,29.64
2023-06-26T17:08:46.331Z,29.85
2023-06-26T17:11:17.354Z,29.56
2023-06-26T17:13:47.750Z,29.20
2023-06-26T17:16:18.743Z,29.72
2023-06-26T17:18:51.012Z,29.36
2023-06-26T17:21:33.676Z,29.42
2023-06-26T17:24:13.399Z,29.82
2023-06-26T17:26:44.482Z,29.58
2023-06-26T17:29:16.731Z,29.34
2023-06-26T17:31:44.749Z,29.74
2023-06-26T17:34:16.572Z,30.36
2023-06-26T17:36:48.618Z,30.67
2023-06-26T17:39:22.533Z,30.99
2023-06-26T17:41:50.985Z,30.60
2023-06-26T17:44:23.646Z,30.76
2023-06-26T17:46:54.666Z,30.81
2023-06-26T17:49:24.028Z,30.69
2023-06-26T17:52:06.490Z,31.19
2023-06-26T17:54:40.721Z,31.79
2023-06-26T17:57:10.434Z,32.46
2023-06-26T17:59:47.688Z,32.49
2023-06-26T18:02:19.171Z,32.94
2023-06-26T18:04:49.520Z,33.51
2023-06-26T18:07:23.215Z,33.73
2023-06-26T18:09:52.752Z,34.98
2023-06-26T18:12:23.694Z,35.82
2023-06-26T18:14:53.126Z,37.12
2023-06-26T18:17:22.417Z,37.25
2023-06-26T18:19:58.456Z,37.04
2023-06-26T18:22:45.122Z,38.31
2023-06-26T18:25:21.845Z,38.33
2023-06-26T18:27:52.151Z,38.92
2023-06-26T18:30:26.241Z,39.17
2023-06-26T18:33:05.454Z,39.55
2023-06-26T18:35:37.413Z,40.13
2023-06-26T18:38:15.220Z,40.40
2023-06-26T18:40:57.666Z,40.46
2023-06-26T18:43:29.013Z,41.13
2023-06-26T18:45:58.139Z,40.70
2023-06-26T18:48:27.662Z,41.02
2023-06-26T18:51:04.411Z,41.65
2023-06-26T18:53:36.155Z,40.79
2023-06-26T18:56:04.448Z,41.21
2023-06-26T18:58:36.127Z,41.77
2023-06-26T19:01:06.776Z,41.86
2023-06-26T19:03:37.279Z,41.77
2023-06-26T19:06:09.070Z,41.45
2023-06-26T19:08:45.879Z,41.93
2023-06-26T19:11:21.054Z,41.82
2023-06-26T19:13:54.564Z,42.65
2023-06-26T19:16:25.223Z,43.25
2023-06-26T19:19:02.233Z,43.84
2023-06-26T19:21:31.116Z,43.61
2023-06-26T19:24:02.683Z,43.36
2023-06-26T19:26:32.415Z,43.44
2023-06-26T19:29:12.666Z,43.68
2023-06-26T19:31:57.665Z,43.82
2023-06-26T19:34:33.712Z,44.15
2023-06-26T19:37:10.042Z,44.25
2023-06-26T19:39:48.933Z,44.39
2023-06-26T19:42:21.012Z,44.24
2023-06-26T19:44:54.227Z,44.70
2023-06-26T19:47:25.140Z,44.77
2023-06-26T19:50:06.486Z,45.11
2023-06-26T19:52:37.693Z,45.21
2023-06-26T19:55:17.807Z,45.64
2023-06-26T19:57:46.786Z,45.72
2023-06-26T20:00:20.023Z,46.09
2023-06-26T20:03:02.718Z,46.49
2023-06-26T20:05:44.228Z,46.06
2023-06-26T20:08:15.074Z,46.27
2023-06-26T20:11:02.578Z,46.53
2023-06-26T20:13:33.298Z,46.61
2023-06-26T20:16:11.360Z,46.68
2023-06-26T20:18:46.961Z,46.33
2023-06-26T20:21:24.366Z,46.27
2023-06-26T20:23:57.716Z,46.70
2023-06-26T20:26:32.604Z,46.76
2023-06-26T20:29:04.373Z,46.54
2023-06-26T20:31:38.119Z,47.12
2023-06-26T20:34:12.687Z,47.52
2023-06-26T20:36:48.591Z,47.07
2023-06-26T20:39:20.490Z,47.27
2023-06-26T20:41:55.876Z,46.99
2023-06-26T20:44:29.768Z,47.82
2023-06-26T20:47:14.597Z,48.40
2023-06-26T20:49:55.257Z,48.75
2023-06-26T20:52:34.889Z,49.59
2023-06-26T20:55:05.091Z,49.50
2023-06-26T20:57:44.044Z,49.92
2023-06-26T21:00:18.853Z,50.67
2023-06-26T21:02:48.240Z,50.09
2023-06-26T21:05:21.802Z,49.99
2023-06-26T21:07:52.254Z,49.94
2023-06-26T21:10:25.919Z,49.82
2023-06-26T21:13:00.054Z,49.99
2023-06-26T21:15:38.375Z,49.88
2023-06-26T21:18:10.741Z,49.24
2023-06-26T21:20:41.089Z,50.13
2023-06-26T21:23:12.085Z,50.59
2023-06-26T21:25:43.233Z,50.43
2023-06-26T21:28:18.714Z,50.17
2023-06-26T21:30:51.180Z,50.47
2023-06-26T21:33:26.477Z,51.27
2023-06-26T21:35:58.561Z,51.29
2023-06-26T21:38:31.904Z,51.45
2023-06-26T21:41:14.098Z,51.27
2023-06-26T21:43:52.799Z,51.05
2023-06-26T21:46:20.950Z,51.31
2023-06-26T21:48:50.619Z,51.06
2023-06-26T21:51:24.617Z,51.24
2023-06-26T21:53:59.307Z,51.30
2023-06-26T21:56:27.736Z,52.02
2023-06-26T21:59:08.645Z,52.11
2023-06-26T22:01:37.083Z,52.49
2023-06-26T22:04:08.115Z,52.60
2023-06-26T22:06:46.278Z,52.44
2023-06-26T22:09:20.755Z,52.92
2023-06-26T22:11:58.521Z,53.21
2023-06-26T22:14:31.615Z,53.39
2023-06-26T22:17:05.638Z,54.05
2023-06-26T22:19:37.271Z,53.61
2023-06-26T22:22:08.203Z,53.63
2023-06-26T22:24:40.079Z,54.11
2023-06-26T22:27:08.762Z,54.54
2023-06-26T22:29:42.247Z,54.28
2023-06-26T22:32:13.515Z,54.25
2023-06-26T22:34:42.634Z,53.63
2023-06-26T22:37:13.726Z,55.05
2023-06-26T22:39:45.342Z,54.81
2023-06-26T22:42:20.024Z,55.10
2023-06-26T22:45:03.218Z,55.16
2023-06-26T22:47:34.113Z,55.72
2023-06-26T22:50:08.654Z,56.74
2023-06-26T22:52:37.749Z,56.65
2023-06-26T22:55:09.446Z,56.73
2023-06-26T22:57:40.499Z,57.19
2023-06-26T23:00:12.859Z,57.40
2023-06-26T23:02:48.961Z,57.29
2023-06-26T23:05:21.503Z,57.78
2023-06-26T23:07:50.483Z,57.42
2023-06-26T23:10:24.926Z,58.66
2023-06-26T23:12:55.756Z,58.67
2023-06-26T23:15:43.444Z,58.66
2023-06-26T23:18:12.856Z,57.87
2023-06-26T23:20:43.871Z,58.45
2023-06-26T23:23:28.404Z,58.92
2023-06-26T23:26:06.564Z,59.11
2023-06-26T23:28:40.533Z,59.11
2023-06-26T23:31:20.086Z,59.33
2023-06-26T23:33:57.313Z,62.70
2023-06-26T23:36:29.662Z,65.14
2023-06-26T23:39:01.330Z,65.68
2023-06-26T23:41:32.878Z,65.28
2023-06-26T23:44:04.373Z,65.94
2023-06-26T23:46:40.588Z,65.43
2023-06-26T23:49:09.807Z,64.81
2023-06-26T23:51:39.639Z,64.43
2023-06-26T23:54:09.757Z,64.47
2023-06-26T23:56:43.629Z,62.51
2023-06-26T23:59:15.887Z,62.05
